Aérodrome :
LOGIN :

S'inscrire | Disclaimer

   EN    FR    IT 

 










Légende :    VFR   VFR Marginal   IFR   IFR Intensif   IFR Très Intensif
Visi : 
Plafond : 
>= 8 km
>= 3000ft
5 à 8 km
1000 à 3000 ft
1500m à 5 km
500 à 1000 ft
800 à 1500m
200 à 500 ft
< 800m
< 200 ft
Symboles :   Orages  Brouillard  Fortes neiges  Fortes précipitations  Vent > 20 kt
SIGMETs :   Divers  Orages  Givrage  Turbulence  Onde Orograph.  Cendres Volcan.






- Altitude de l'aérodrome : 768 ft
- Code IATA : MXP


LIMC - Milano Malpensa

DERNIER METAR :
  • 300320Z 01005KT 7000 BCFG NSC M00/M01 Q1021 NOSIG

METARs EXPIRÉS :
  • 300250Z 01005KT 7000 BCFG NSC M02/M02 Q1021 NOSIG
  • 300220Z 02004KT 7000 BCFG NSC M01/M02 Q1021 NOSIG
  • 300150Z 03005KT 7000 BCFG NSC M01/M01 Q1021 NOSIG
  • 300120Z 02005KT 7000 BCFG NSC M00/M01 Q1020 NOSIG
  • 300050Z 01004KT 7000 R35R/1400U R17L/1400D R35L/P1500N BCFG NSC M00/M01 Q1020 NOSIG

TAF TAF LIMC
Valide du 30 à 00h jusqu'au 01 à 06h UTC


292300Z 3000/0106 VRB03KT 3000 BR SCT030
BECMG 3008/3010 6000
BECMG 3015/3017 4000 BR



MET'MAP, la Météo Aéronautique d'un coup d'oeil ! - Copyright ORBIFLY Décembre 2007 - Disclaimer

ORBIFLY MET'MAP TEAM :

Programmation & Développement : Alexandra Zaïnal
Sur une idée originale de : Baudouin d'Aumeries
Assistance à la programmation : Marc-Olivier Méhu
Soutien technique & logistique : Manuel Goepfert

Contact : metmap@orbifly.com




SOURCES & CREDITS :

   NOAA